sensor_id;sensor_type;location;lat;lon;timestamp;temperature;humidity
19870;DHT22;10097;50.862;4.696;2023-06-14T00:00:20;21.30;94.80
19870;DHT22;10097;50.862;4.696;2023-06-14T00:02:47;21.20;94.40
19870;DHT22;10097;50.862;4.696;2023-06-14T00:05:15;21.20;94.50
19870;DHT22;10097;50.862;4.696;2023-06-14T00:07:43;21.20;94.70
19870;DHT22;10097;50.862;4.696;2023-06-14T00:10:11;21.10;94.90
19870;DHT22;10097;50.862;4.696;2023-06-14T00:12:40;21.10;95.20
19870;DHT22;10097;50.862;4.696;2023-06-14T00:15:08;21.10;95.60
19870;DHT22;10097;50.862;4.696;2023-06-14T00:17:37;21.10;95.90
19870;DHT22;10097;50.862;4.696;2023-06-14T00:20:04;21.00;96.40
19870;DHT22;10097;50.862;4.696;2023-06-14T00:22:33;21.00;96.80
19870;DHT22;10097;50.862;4.696;2023-06-14T00:24:59;21.00;97.50
19870;DHT22;10097;50.862;4.696;2023-06-14T00:27:25;20.90;97.60
19870;DHT22;10097;50.862;4.696;2023-06-14T00:29:53;20.80;97.00
19870;DHT22;10097;50.862;4.696;2023-06-14T00:32:19;20.80;97.10
19870;DHT22;10097;50.862;4.696;2023-06-14T00:34:45;20.80;97.40
19870;DHT22;10097;50.862;4.696;2023-06-14T00:37:12;20.80;97.60
19870;DHT22;10097;50.862;4.696;2023-06-14T00:39:37;20.70;97.40
19870;DHT22;10097;50.862;4.696;2023-06-14T00:42:03;20.70;97.30
19870;DHT22;10097;50.862;4.696;2023-06-14T00:44:30;20.60;97.40
19870;DHT22;10097;50.862;4.696;2023-06-14T00:46:56;20.60;97.90
19870;DHT22;10097;50.862;4.696;2023-06-14T00:49:22;20.50;97.90
19870;DHT22;10097;50.862;4.696;2023-06-14T00:51:47;20.40;98.00
19870;DHT22;10097;50.862;4.696;2023-06-14T00:54:14;20.50;98.20
19870;DHT22;10097;50.862;4.696;2023-06-14T00:56:40;20.50;98.70
19870;DHT22;10097;50.862;4.696;2023-06-14T00:59:07;20.50;99.00
19870;DHT22;10097;50.862;4.696;2023-06-14T01:01:33;20.50;99.10
19870;DHT22;10097;50.862;4.696;2023-06-14T01:03:59;20.50;99.40
19870;DHT22;10097;50.862;4.696;2023-06-14T01:14:27;20.40;99.90
19870;DHT22;10097;50.862;4.696;2023-06-14T01:16:56;20.40;99.90
19870;DHT22;10097;50.862;4.696;2023-06-14T01:19:26;20.40;99.90
19870;DHT22;10097;50.862;4.696;2023-06-14T01:21:55;20.40;99.90
19870;DHT22;10097;50.862;4.696;2023-06-14T01:24:20;20.40;99.90
19870;DHT22;10097;50.862;4.696;2023-06-14T01:26:53;20.30;99.90
19870;DHT22;10097;50.862;4.696;2023-06-14T01:29:23;20.30;99.90
19870;DHT22;10097;50.862;4.696;2023-06-14T01:31:50;20.20;99.90
19870;DHT22;10097;50.862;4.696;2023-06-14T01:34:16;20.20;99.90
19870;DHT22;10097;50.862;4.696;2023-06-14T01:36:46;20.10;99.90
19870;DHT22;10097;50.862;4.696;2023-06-14T01:39:15;20.10;99.90
19870;DHT22;10097;50.862;4.696;2023-06-14T01:41:42;20.10;99.90
19870;DHT22;10097;50.862;4.696;2023-06-14T01:44:08;20.10;99.90
19870;DHT22;10097;50.862;4.696;2023-06-14T01:46:35;20.00;99.90
19870;DHT22;10097;50.862;4.696;2023-06-14T01:49:01;20.00;99.90
19870;DHT22;10097;50.862;4.696;2023-06-14T01:51:27;20.00;99.90
19870;DHT22;10097;50.862;4.696;2023-06-14T01:53:53;19.90;99.90
19870;DHT22;10097;50.862;4.696;2023-06-14T01:56:19;19.70;99.90
19870;DHT22;10097;50.862;4.696;2023-06-14T01:58:45;19.70;99.90
19870;DHT22;10097;50.862;4.696;2023-06-14T02:01:11;19.70;99.90
19870;DHT22;10097;50.862;4.696;2023-06-14T02:03:38;19.60;99.90
19870;DHT22;10097;50.862;4.696;2023-06-14T02:06:04;19.50;99.90
19870;DHT22;10097;50.862;4.696;2023-06-14T02:08:29;19.50;99.90
19870;DHT22;10097;50.862;4.696;2023-06-14T02:10:55;19.60;99.90
19870;DHT22;10097;50.862;4.696;2023-06-14T02:13:21;19.50;99.90
19870;DHT22;10097;50.862;4.696;2023-06-14T02:15:47;19.50;99.90
19870;DHT22;10097;50.862;4.696;2023-06-14T02:18:16;19.50;99.90
19870;DHT22;10097;50.862;4.696;2023-06-14T02:20:42;19.40;99.90
19870;DHT22;10097;50.862;4.696;2023-06-14T02:23:07;19.40;99.90
19870;DHT22;10097;50.862;4.696;2023-06-14T02:25:33;19.40;99.90
19870;DHT22;10097;50.862;4.696;2023-06-14T02:27:59;19.40;99.90
19870;DHT22;10097;50.862;4.696;2023-06-14T02:30:25;19.30;99.90
19870;DHT22;10097;50.862;4.696;2023-06-14T02:32:50;19.30;99.90
19870;DHT22;10097;50.862;4.696;2023-06-14T02:35:18;19.20;99.90
19870;DHT22;10097;50.862;4.696;2023-06-14T02:37:45;19.20;99.90
19870;DHT22;10097;50.862;4.696;2023-06-14T02:40:12;19.10;99.90
19870;DHT22;10097;50.862;4.696;2023-06-14T02:42:37;19.10;99.90
19870;DHT22;10097;50.862;4.696;2023-06-14T02:45:03;19.10;99.90
19870;DHT22;10097;50.862;4.696;2023-06-14T02:47:29;19.00;99.90
19870;DHT22;10097;50.862;4.696;2023-06-14T02:49:56;19.00;99.90
19870;DHT22;10097;50.862;4.696;2023-06-14T02:52:22;18.90;99.90
19870;DHT22;10097;50.862;4.696;2023-06-14T02:54:48;18.90;99.90
19870;DHT22;10097;50.862;4.696;2023-06-14T02:57:15;18.90;99.90
19870;DHT22;10097;50.862;4.696;2023-06-14T02:59:40;18.80;99.90
19870;DHT22;10097;50.862;4.696;2023-06-14T03:02:06;18.80;99.90
19870;DHT22;10097;50.862;4.696;2023-06-14T03:04:32;18.80;99.90
19870;DHT22;10097;50.862;4.696;2023-06-14T03:07:03;18.70;99.90
19870;DHT22;10097;50.862;4.696;2023-06-14T03:09:35;18.60;99.90
19870;DHT22;10097;50.862;4.696;2023-06-14T03:12:06;18.60;99.90
19870;DHT22;10097;50.862;4.696;2023-06-14T03:14:32;18.50;99.90
19870;DHT22;10097;50.862;4.696;2023-06-14T03:16:58;18.50;99.90
19870;DHT22;10097;50.862;4.696;2023-06-14T03:19:24;18.50;99.90
19870;DHT22;10097;50.862;4.696;2023-06-14T03:21:52;18.50;99.90
19870;DHT22;10097;50.862;4.696;2023-06-14T03:24:17;18.40;99.90
19870;DHT22;10097;50.862;4.696;2023-06-14T03:26:43;18.40;99.90
19870;DHT22;10097;50.862;4.696;2023-06-14T03:29:09;18.50;99.90
19870;DHT22;10097;50.862;4.696;2023-06-14T03:31:35;18.40;99.90
19870;DHT22;10097;50.862;4.696;2023-06-14T03:34:01;18.40;99.90
19870;DHT22;10097;50.862;4.696;2023-06-14T03:36:27;18.30;99.90
19870;DHT22;10097;50.862;4.696;2023-06-14T03:38:56;18.40;99.90
19870;DHT22;10097;50.862;4.696;2023-06-14T03:41:21;18.40;99.90
19870;DHT22;10097;50.862;4.696;2023-06-14T03:43:47;18.40;99.90
19870;DHT22;10097;50.862;4.696;2023-06-14T03:46:13;18.30;99.90
19870;DHT22;10097;50.862;4.696;2023-06-14T03:48:38;18.30;99.90
19870;DHT22;10097;50.862;4.696;2023-06-14T03:51:04;18.30;99.90
19870;DHT22;10097;50.862;4.696;2023-06-14T03:53:30;18.30;99.90
19870;DHT22;10097;50.862;4.696;2023-06-14T03:55:56;18.30;99.90
19870;DHT22;10097;50.862;4.696;2023-06-14T03:58:22;18.30;99.90
19870;DHT22;10097;50.862;4.696;2023-06-14T04:00:48;18.30;99.90
19870;DHT22;10097;50.862;4.696;2023-06-14T04:03:14;18.30;99.90
19870;DHT22;10097;50.862;4.696;2023-06-14T04:05:41;18.30;99.90
19870;DHT22;10097;50.862;4.696;2023-06-14T04:08:14;18.30;99.90
19870;DHT22;10097;50.862;4.696;2023-06-14T04:10:41;18.30;99.90
19870;DHT22;10097;50.862;4.696;2023-06-14T04:13:06;18.30;99.90
19870;DHT22;10097;50.862;4.696;2023-06-14T04:15:32;18.40;99.90
19870;DHT22;10097;50.862;4.696;2023-06-14T04:17:59;18.30;99.90
19870;DHT22;10097;50.862;4.696;2023-06-14T04:20:25;18.30;99.90
19870;DHT22;10097;50.862;4.696;2023-06-14T04:22:52;18.30;99.90
19870;DHT22;10097;50.862;4.696;2023-06-14T04:25:22;18.40;99.90
19870;DHT22;10097;50.862;4.696;2023-06-14T04:27:48;18.40;99.90
19870;DHT22;10097;50.862;4.696;2023-06-14T04:30:15;18.40;99.90
19870;DHT22;10097;50.862;4.696;2023-06-14T04:32:40;18.50;99.90
19870;DHT22;10097;50.862;4.696;2023-06-14T04:35:08;18.50;99.90
19870;DHT22;10097;50.862;4.696;2023-06-14T04:37:34;18.30;99.90
19870;DHT22;10097;50.862;4.696;2023-06-14T04:40:00;18.40;99.90
19870;DHT22;10097;50.862;4.696;2023-06-14T04:42:26;18.40;99.90
19870;DHT22;10097;50.862;4.696;2023-06-14T04:44:56;18.50;99.90
19870;DHT22;10097;50.862;4.696;2023-06-14T04:47:24;18.60;99.90
19870;DHT22;10097;50.862;4.696;2023-06-14T04:49:56;18.60;99.90
19870;DHT22;10097;50.862;4.696;2023-06-14T04:52:22;18.60;99.90
19870;DHT22;10097;50.862;4.696;2023-06-14T04:54:48;18.70;99.90
19870;DHT22;10097;50.862;4.696;2023-06-14T04:57:14;18.70;99.90
19870;DHT22;10097;50.862;4.696;2023-06-14T04:59:43;18.70;99.90
19870;DHT22;10097;50.862;4.696;2023-06-14T05:02:10;18.70;99.90
19870;DHT22;10097;50.862;4.696;2023-06-14T05:04:35;18.70;99.90
19870;DHT22;10097;50.862;4.696;2023-06-14T05:07:08;18.80;99.90
19870;DHT22;10097;50.862;4.696;2023-06-14T05:09:35;18.80;99.90
19870;DHT22;10097;50.862;4.696;2023-06-14T05:12:01;18.80;99.90
19870;DHT22;10097;50.862;4.696;2023-06-14T05:14:27;18.70;99.90
19870;DHT22;10097;50.862;4.696;2023-06-14T05:16:52;18.70;99.90
19870;DHT22;10097;50.862;4.696;2023-06-14T05:19:19;18.70;99.90
19870;DHT22;10097;50.862;4.696;2023-06-14T05:21:46;18.70;99.90
19870;DHT22;10097;50.862;4.696;2023-06-14T05:24:13;18.70;99.90
19870;DHT22;10097;50.862;4.696;2023-06-14T05:26:39;18.70;99.90
19870;DHT22;10097;50.862;4.696;2023-06-14T05:29:04;18.70;99.90
19870;DHT22;10097;50.862;4.696;2023-06-14T05:31:30;18.80;99.90
19870;DHT22;10097;50.862;4.696;2023-06-14T05:33:56;19.00;99.90
19870;DHT22;10097;50.862;4.696;2023-06-14T05:36:22;19.10;99.90
19870;DHT22;10097;50.862;4.696;2023-06-14T05:38:48;19.20;99.90
19870;DHT22;10097;50.862;4.696;2023-06-14T05:41:13;19.20;99.90
19870;DHT22;10097;50.862;4.696;2023-06-14T05:43:39;19.20;99.90
19870;DHT22;10097;50.862;4.696;2023-06-14T05:46:05;19.30;99.90
19870;DHT22;10097;50.862;4.696;2023-06-14T05:48:31;19.40;99.90
19870;DHT22;10097;50.862;4.696;2023-06-14T05:50:57;19.40;99.90
19870;DHT22;10097;50.862;4.696;2023-06-14T05:53:22;19.30;99.90
19870;DHT22;10097;50.862;4.696;2023-06-14T05:55:50;19.30;99.90
19870;DHT22;10097;50.862;4.696;2023-06-14T05:58:20;19.50;99.90
19870;DHT22;10097;50.862;4.696;2023-06-14T06:00:48;19.70;99.90
19870;DHT22;10097;50.862;4.696;2023-06-14T06:03:16;19.80;99.90
19870;DHT22;10097;50.862;4.696;2023-06-14T06:05:41;19.80;99.90
19870;DHT22;10097;50.862;4.696;2023-06-14T06:08:07;19.90;99.90
19870;DHT22;10097;50.862;4.696;2023-06-14T06:10:33;20.00;99.90
19870;DHT22;10097;50.862;4.696;2023-06-14T06:12:58;20.10;99.90
19870;DHT22;10097;50.862;4.696;2023-06-14T06:15:24;20.20;99.90
19870;DHT22;10097;50.862;4.696;2023-06-14T06:17:50;20.30;99.90
19870;DHT22;10097;50.862;4.696;2023-06-14T06:20:16;20.40;99.90
19870;DHT22;10097;50.862;4.696;2023-06-14T06:22:42;20.50;99.90
19870;DHT22;10097;50.862;4.696;2023-06-14T06:25:10;20.70;99.90
19870;DHT22;10097;50.862;4.696;2023-06-14T06:27:35;20.70;99.90
19870;DHT22;10097;50.862;4.696;2023-06-14T06:30:06;20.90;99.90
19870;DHT22;10097;50.862;4.696;2023-06-14T06:32:39;21.00;99.90
19870;DHT22;10097;50.862;4.696;2023-06-14T06:35:05;21.00;99.90
19870;DHT22;10097;50.862;4.696;2023-06-14T06:37:32;21.20;99.90
19870;DHT22;10097;50.862;4.696;2023-06-14T06:39:58;21.10;99.90
19870;DHT22;10097;50.862;4.696;2023-06-14T06:42:39;21.10;99.90
19870;DHT22;10097;50.862;4.696;2023-06-14T06:45:05;21.30;99.90
19870;DHT22;10097;50.862;4.696;2023-06-14T06:47:36;21.40;99.90
19870;DHT22;10097;50.862;4.696;2023-06-14T06:50:02;21.50;99.90
19870;DHT22;10097;50.862;4.696;2023-06-14T06:52:27;21.60;99.90
19870;DHT22;10097;50.862;4.696;2023-06-14T06:54:55;21.70;99.90
19870;DHT22;10097;50.862;4.696;2023-06-14T06:57:22;21.70;99.90
19870;DHT22;10097;50.862;4.696;2023-06-14T06:59:48;21.80;99.90
19870;DHT22;10097;50.862;4.696;2023-06-14T07:02:15;22.00;99.90
19870;DHT22;10097;50.862;4.696;2023-06-14T07:04:40;22.00;99.90
19870;DHT22;10097;50.862;4.696;2023-06-14T07:07:06;21.90;99.90
19870;DHT22;10097;50.862;4.696;2023-06-14T07:09:32;22.00;99.90
19870;DHT22;10097;50.862;4.696;2023-06-14T07:11:58;22.10;99.90
19870;DHT22;10097;50.862;4.696;2023-06-14T07:14:23;22.30;99.90
19870;DHT22;10097;50.862;4.696;2023-06-14T07:16:49;22.40;99.90
19870;DHT22;10097;50.862;4.696;2023-06-14T07:19:15;22.20;99.90
19870;DHT22;10097;50.862;4.696;2023-06-14T07:21:41;22.10;99.90
19870;DHT22;10097;50.862;4.696;2023-06-14T07:24:06;22.20;99.90
19870;DHT22;10097;50.862;4.696;2023-06-14T07:26:33;22.30;99.90
19870;DHT22;10097;50.862;4.696;2023-06-14T07:28:59;22.50;99.90
19870;DHT22;10097;50.862;4.696;2023-06-14T07:31:25;22.60;99.90
19870;DHT22;10097;50.862;4.696;2023-06-14T07:33:51;22.70;99.90
19870;DHT22;10097;50.862;4.696;2023-06-14T07:36:17;22.80;99.90
19870;DHT22;10097;50.862;4.696;2023-06-14T07:38:43;22.90;99.90
19870;DHT22;10097;50.862;4.696;2023-06-14T07:41:09;22.90;99.90
19870;DHT22;10097;50.862;4.696;2023-06-14T07:43:35;22.90;99.90
19870;DHT22;10097;50.862;4.696;2023-06-14T07:46:01;23.10;99.90
19870;DHT22;10097;50.862;4.696;2023-06-14T07:48:27;23.00;99.90
19870;DHT22;10097;50.862;4.696;2023-06-14T07:50:53;23.10;99.90
19870;DHT22;10097;50.862;4.696;2023-06-14T07:53:19;23.10;99.90
19870;DHT22;10097;50.862;4.696;2023-06-14T07:55:45;23.20;99.90
19870;DHT22;10097;50.862;4.696;2023-06-14T07:58:12;23.30;99.90
19870;DHT22;10097;50.862;4.696;2023-06-14T08:00:38;23.50;99.90
19870;DHT22;10097;50.862;4.696;2023-06-14T08:03:04;23.60;99.90
19870;DHT22;10097;50.862;4.696;2023-06-14T08:05:29;23.70;99.90
19870;DHT22;10097;50.862;4.696;2023-06-14T08:07:58;23.80;99.90
19870;DHT22;10097;50.862;4.696;2023-06-14T08:10:24;23.80;99.90
19870;DHT22;10097;50.862;4.696;2023-06-14T08:12:52;23.80;99.90
19870;DHT22;10097;50.862;4.696;2023-06-14T08:15:21;23.80;99.90
19870;DHT22;10097;50.862;4.696;2023-06-14T08:17:46;23.90;99.90
19870;DHT22;10097;50.862;4.696;2023-06-14T08:20:13;24.00;99.90
19870;DHT22;10097;50.862;4.696;2023-06-14T08:22:42;24.10;99.90
19870;DHT22;10097;50.862;4.696;2023-06-14T08:25:09;24.10;99.90
19870;DHT22;10097;50.862;4.696;2023-06-14T08:27:35;24.10;99.90
19870;DHT22;10097;50.862;4.696;2023-06-14T08:30:01;24.20;99.90
19870;DHT22;10097;50.862;4.696;2023-06-14T08:32:28;24.20;99.90
19870;DHT22;10097;50.862;4.696;2023-06-14T08:34:53;24.40;99.90
19870;DHT22;10097;50.862;4.696;2023-06-14T08:37:19;24.30;99.90
19870;DHT22;10097;50.862;4.696;2023-06-14T08:39:46;24.40;99.90
19870;DHT22;10097;50.862;4.696;2023-06-14T08:42:12;24.60;99.90
19870;DHT22;10097;50.862;4.696;2023-06-14T08:44:39;24.60;99.90
19870;DHT22;10097;50.862;4.696;2023-06-14T08:47:07;24.70;99.90
19870;DHT22;10097;50.862;4.696;2023-06-14T08:49:33;24.70;99.90
19870;DHT22;10097;50.862;4.696;2023-06-14T08:52:00;24.90;99.90
19870;DHT22;10097;50.862;4.696;2023-06-14T08:54:29;24.90;99.90
19870;DHT22;10097;50.862;4.696;2023-06-14T08:56:59;24.80;99.90
19870;DHT22;10097;50.862;4.696;2023-06-14T08:59:26;24.90;99.90
19870;DHT22;10097;50.862;4.696;2023-06-14T09:01:52;25.00;99.90
19870;DHT22;10097;50.862;4.696;2023-06-14T09:04:22;25.00;99.90
19870;DHT22;10097;50.862;4.696;2023-06-14T09:06:49;25.30;99.90
19870;DHT22;10097;50.862;4.696;2023-06-14T09:09:20;25.40;99.90
19870;DHT22;10097;50.862;4.696;2023-06-14T09:11:46;25.60;99.90
19870;DHT22;10097;50.862;4.696;2023-06-14T09:14:12;25.70;99.90
19870;DHT22;10097;50.862;4.696;2023-06-14T09:16:38;25.60;99.90
19870;DHT22;10097;50.862;4.696;2023-06-14T09:19:04;25.60;99.90
19870;DHT22;10097;50.862;4.696;2023-06-14T09:21:33;25.60;99.90
19870;DHT22;10097;50.862;4.696;2023-06-14T09:24:02;25.60;99.90
19870;DHT22;10097;50.862;4.696;2023-06-14T09:26:32;25.70;99.90
19870;DHT22;10097;50.862;4.696;2023-06-14T09:28:58;25.70;99.90
19870;DHT22;10097;50.862;4.696;2023-06-14T09:31:24;25.80;99.90
19870;DHT22;10097;50.862;4.696;2023-06-14T09:33:50;25.70;99.90
19870;DHT22;10097;50.862;4.696;2023-06-14T09:36:24;25.70;99.90
19870;DHT22;10097;50.862;4.696;2023-06-14T09:39:01;25.90;99.90
19870;DHT22;10097;50.862;4.696;2023-06-14T09:41:37;26.00;99.90
19870;DHT22;10097;50.862;4.696;2023-06-14T09:44:09;26.20;99.90
19870;DHT22;10097;50.862;4.696;2023-06-14T09:46:36;26.50;99.90
19870;DHT22;10097;50.862;4.696;2023-06-14T09:49:03;26.60;99.90
19870;DHT22;10097;50.862;4.696;2023-06-14T09:51:32;26.60;99.90
19870;DHT22;10097;50.862;4.696;2023-06-14T09:54:02;26.70;99.90
19870;DHT22;10097;50.862;4.696;2023-06-14T09:56:35;26.70;99.30
19870;DHT22;10097;50.862;4.696;2023-06-14T09:59:04;26.80;99.30
19870;DHT22;10097;50.862;4.696;2023-06-14T10:01:34;26.90;98.70
19870;DHT22;10097;50.862;4.696;2023-06-14T10:04:05;27.00;98.90
19870;DHT22;10097;50.862;4.696;2023-06-14T10:06:39;27.00;97.30
19870;DHT22;10097;50.862;4.696;2023-06-14T10:09:08;27.00;97.20
19870;DHT22;10097;50.862;4.696;2023-06-14T10:11:35;27.00;95.10
19870;DHT22;10097;50.862;4.696;2023-06-14T10:14:03;27.10;94.40
19870;DHT22;10097;50.862;4.696;2023-06-14T10:16:39;27.20;94.10
19870;DHT22;10097;50.862;4.696;2023-06-14T10:22:00;27.20;93.50
19870;DHT22;10097;50.862;4.696;2023-06-14T10:24:32;27.30;94.10
19870;DHT22;10097;50.862;4.696;2023-06-14T10:26:59;27.30;92.90
19870;DHT22;10097;50.862;4.696;2023-06-14T10:29:27;27.40;93.30
19870;DHT22;10097;50.862;4.696;2023-06-14T10:31:58;27.40;90.80
19870;DHT22;10097;50.862;4.696;2023-06-14T10:34:29;27.40;91.40
19870;DHT22;10097;50.862;4.696;2023-06-14T10:37:01;27.60;91.50
19870;DHT22;10097;50.862;4.696;2023-06-14T10:39:33;27.50;90.60
19870;DHT22;10097;50.862;4.696;2023-06-14T10:42:02;27.50;90.70
19870;DHT22;10097;50.862;4.696;2023-06-14T10:50:09;27.90;91.60
19870;DHT22;10097;50.862;4.696;2023-06-14T10:52:42;27.70;89.30
19870;DHT22;10097;50.862;4.696;2023-06-14T10:55:19;27.70;89.30
19870;DHT22;10097;50.862;4.696;2023-06-14T10:57:50;27.90;88.60
19870;DHT22;10097;50.862;4.696;2023-06-14T11:00:27;28.00;85.90
19870;DHT22;10097;50.862;4.696;2023-06-14T11:11:05;29.10;85.00
19870;DHT22;10097;50.862;4.696;2023-06-14T11:13:36;30.20;80.40
19870;DHT22;10097;50.862;4.696;2023-06-14T11:16:13;31.50;76.20
19870;DHT22;10097;50.862;4.696;2023-06-14T11:18:39;31.80;71.50
19870;DHT22;10097;50.862;4.696;2023-06-14T11:21:10;32.00;71.30
19870;DHT22;10097;50.862;4.696;2023-06-14T11:23:36;32.50;70.80
19870;DHT22;10097;50.862;4.696;2023-06-14T11:26:04;33.20;67.80
19870;DHT22;10097;50.862;4.696;2023-06-14T11:28:40;34.00;65.90
19870;DHT22;10097;50.862;4.696;2023-06-14T11:31:06;34.00;65.90
19870;DHT22;10097;50.862;4.696;2023-06-14T11:33:33;34.50;62.00
19870;DHT22;10097;50.862;4.696;2023-06-14T11:36:02;34.50;61.70
19870;DHT22;10097;50.862;4.696;2023-06-14T11:38:28;34.50;60.20
19870;DHT22;10097;50.862;4.696;2023-06-14T11:40:58;34.60;63.40
19870;DHT22;10097;50.862;4.696;2023-06-14T11:43:27;34.90;60.90
19870;DHT22;10097;50.862;4.696;2023-06-14T11:45:54;34.30;59.50
19870;DHT22;10097;50.862;4.696;2023-06-14T11:48:20;33.50;62.00
19870;DHT22;10097;50.862;4.696;2023-06-14T11:50:50;34.10;59.70
19870;DHT22;10097;50.862;4.696;2023-06-14T11:53:16;34.40;61.00
19870;DHT22;10097;50.862;4.696;2023-06-14T11:55:42;34.20;60.70
19870;DHT22;10097;50.862;4.696;2023-06-14T11:58:10;34.10;61.00
19870;DHT22;10097;50.862;4.696;2023-06-14T12:00:37;33.60;60.50
19870;DHT22;10097;50.862;4.696;2023-06-14T12:03:03;33.60;59.80
19870;DHT22;10097;50.862;4.696;2023-06-14T12:05:29;33.20;61.00
19870;DHT22;10097;50.862;4.696;2023-06-14T12:08:02;33.50;60.70
19870;DHT22;10097;50.862;4.696;2023-06-14T12:10:29;33.80;61.30
19870;DHT22;10097;50.862;4.696;2023-06-14T12:12:59;34.00;59.90
19870;DHT22;10097;50.862;4.696;2023-06-14T12:15:28;34.00;58.60
19870;DHT22;10097;50.862;4.696;2023-06-14T12:17:54;33.70;57.80
19870;DHT22;10097;50.862;4.696;2023-06-14T12:20:23;33.60;57.80
19870;DHT22;10097;50.862;4.696;2023-06-14T12:22:55;33.20;58.30
19870;DHT22;10097;50.862;4.696;2023-06-14T12:25:35;33.50;57.90
19870;DHT22;10097;50.862;4.696;2023-06-14T12:28:08;33.40;58.50
19870;DHT22;10097;50.862;4.696;2023-06-14T12:30:38;33.20;58.20
19870;DHT22;10097;50.862;4.696;2023-06-14T12:33:04;32.70;59.00
19870;DHT22;10097;50.862;4.696;2023-06-14T12:35:31;33.20;59.40
19870;DHT22;10097;50.862;4.696;2023-06-14T12:38:09;33.70;58.80
19870;DHT22;10097;50.862;4.696;2023-06-14T12:40:37;34.50;58.10
19870;DHT22;10097;50.862;4.696;2023-06-14T12:43:04;34.00;57.60
19870;DHT22;10097;50.862;4.696;2023-06-14T12:45:31;34.10;58.00
19870;DHT22;10097;50.862;4.696;2023-06-14T12:47:56;34.40;57.00
19870;DHT22;10097;50.862;4.696;2023-06-14T12:50:25;35.00;57.10
19870;DHT22;10097;50.862;4.696;2023-06-14T12:52:50;35.10;55.80
19870;DHT22;10097;50.862;4.696;2023-06-14T12:55:16;35.10;56.00
19870;DHT22;10097;50.862;4.696;2023-06-14T12:57:43;35.20;57.10
19870;DHT22;10097;50.862;4.696;2023-06-14T13:00:11;35.40;56.60
19870;DHT22;10097;50.862;4.696;2023-06-14T13:02:38;34.60;55.70
19870;DHT22;10097;50.862;4.696;2023-06-14T13:05:06;34.60;55.30
19870;DHT22;10097;50.862;4.696;2023-06-14T13:07:32;34.80;54.50
19870;DHT22;10097;50.862;4.696;2023-06-14T13:09:58;34.70;56.00
19870;DHT22;10097;50.862;4.696;2023-06-14T13:12:23;34.70;54.70
19870;DHT22;10097;50.862;4.696;2023-06-14T13:14:49;34.50;55.60
19870;DHT22;10097;50.862;4.696;2023-06-14T13:17:15;34.40;54.60
19870;DHT22;10097;50.862;4.696;2023-06-14T13:19:41;33.70;55.00
19870;DHT22;10097;50.862;4.696;2023-06-14T13:22:08;33.90;53.80
19870;DHT22;10097;50.862;4.696;2023-06-14T13:24:34;33.90;54.60
19870;DHT22;10097;50.862;4.696;2023-06-14T13:27:00;34.40;54.70
19870;DHT22;10097;50.862;4.696;2023-06-14T13:29:26;34.70;54.70
19870;DHT22;10097;50.862;4.696;2023-06-14T13:32:01;35.30;53.20
19870;DHT22;10097;50.862;4.696;2023-06-14T13:34:27;35.70;53.50
19870;DHT22;10097;50.862;4.696;2023-06-14T13:36:56;34.70;51.90
19870;DHT22;10097;50.862;4.696;2023-06-14T13:39:24;34.50;52.70
19870;DHT22;10097;50.862;4.696;2023-06-14T13:41:50;34.30;52.20
19870;DHT22;10097;50.862;4.696;2023-06-14T13:44:16;34.00;53.10
19870;DHT22;10097;50.862;4.696;2023-06-14T13:46:46;34.00;52.70
19870;DHT22;10097;50.862;4.696;2023-06-14T13:49:12;34.10;53.00
19870;DHT22;10097;50.862;4.696;2023-06-14T13:51:43;33.90;53.50
19870;DHT22;10097;50.862;4.696;2023-06-14T13:54:12;33.80;52.60
19870;DHT22;10097;50.862;4.696;2023-06-14T13:56:41;34.00;52.40
19870;DHT22;10097;50.862;4.696;2023-06-14T13:59:08;34.40;51.90
19870;DHT22;10097;50.862;4.696;2023-06-14T14:01:34;34.40;51.90
19870;DHT22;10097;50.862;4.696;2023-06-14T14:04:00;34.80;50.90
19870;DHT22;10097;50.862;4.696;2023-06-14T14:06:26;35.10;51.70
19870;DHT22;10097;50.862;4.696;2023-06-14T14:08:52;35.10;51.20
19870;DHT22;10097;50.862;4.696;2023-06-14T14:11:18;34.80;51.10
19870;DHT22;10097;50.862;4.696;2023-06-14T14:13:44;34.70;51.30
19870;DHT22;10097;50.862;4.696;2023-06-14T14:16:10;34.90;50.30
19870;DHT22;10097;50.862;4.696;2023-06-14T14:18:36;35.40;51.00
19870;DHT22;10097;50.862;4.696;2023-06-14T14:21:03;35.00;50.70
19870;DHT22;10097;50.862;4.696;2023-06-14T14:23:36;35.10;50.80
19870;DHT22;10097;50.862;4.696;2023-06-14T14:26:02;35.70;51.10
19870;DHT22;10097;50.862;4.696;2023-06-14T14:28:30;34.70;50.20
19870;DHT22;10097;50.862;4.696;2023-06-14T14:30:56;34.00;50.60
19870;DHT22;10097;50.862;4.696;2023-06-14T14:33:21;33.80;50.50
19870;DHT22;10097;50.862;4.696;2023-06-14T14:35:47;34.50;51.40
19870;DHT22;10097;50.862;4.696;2023-06-14T14:38:14;34.40;51.30
19870;DHT22;10097;50.862;4.696;2023-06-14T14:40:44;33.60;51.40
19870;DHT22;10097;50.862;4.696;2023-06-14T14:43:12;33.80;51.80
19870;DHT22;10097;50.862;4.696;2023-06-14T14:45:43;34.00;52.10
19870;DHT22;10097;50.862;4.696;2023-06-14T14:48:11;34.10;51.30
19870;DHT22;10097;50.862;4.696;2023-06-14T14:50:43;34.50;51.90
19870;DHT22;10097;50.862;4.696;2023-06-14T14:53:08;34.50;51.40
19870;DHT22;10097;50.862;4.696;2023-06-14T14:55:34;35.10;51.30
19870;DHT22;10097;50.862;4.696;2023-06-14T14:58:02;35.70;50.70
19870;DHT22;10097;50.862;4.696;2023-06-14T15:00:28;35.10;50.00
19870;DHT22;10097;50.862;4.696;2023-06-14T15:02:57;35.20;50.70
19870;DHT22;10097;50.862;4.696;2023-06-14T15:05:25;35.30;50.70
19870;DHT22;10097;50.862;4.696;2023-06-14T15:07:53;35.30;50.80
19870;DHT22;10097;50.862;4.696;2023-06-14T15:10:19;35.90;51.10
19870;DHT22;10097;50.862;4.696;2023-06-14T15:12:45;36.30;49.30
19870;DHT22;10097;50.862;4.696;2023-06-14T15:15:11;36.00;49.70
19870;DHT22;10097;50.862;4.696;2023-06-14T15:17:38;35.40;49.90
19870;DHT22;10097;50.862;4.696;2023-06-14T15:20:05;35.90;49.50
19870;DHT22;10097;50.862;4.696;2023-06-14T15:22:31;36.30;49.90
19870;DHT22;10097;50.862;4.696;2023-06-14T15:24:59;35.90;49.40
19870;DHT22;10097;50.862;4.696;2023-06-14T15:27:27;35.10;50.20
19870;DHT22;10097;50.862;4.696;2023-06-14T15:29:53;34.50;50.70
19870;DHT22;10097;50.862;4.696;2023-06-14T15:32:18;34.20;50.90
19870;DHT22;10097;50.862;4.696;2023-06-14T15:34:44;34.70;53.00
19870;DHT22;10097;50.862;4.696;2023-06-14T15:37:10;35.20;51.10
19870;DHT22;10097;50.862;4.696;2023-06-14T15:39:35;35.20;51.00
19870;DHT22;10097;50.862;4.696;2023-06-14T15:42:03;35.40;50.90
19870;DHT22;10097;50.862;4.696;2023-06-14T15:44:29;35.60;50.70
19870;DHT22;10097;50.862;4.696;2023-06-14T15:46:54;36.10;49.80
19870;DHT22;10097;50.862;4.696;2023-06-14T15:49:20;36.40;49.70
19870;DHT22;10097;50.862;4.696;2023-06-14T15:51:46;36.50;49.70
19870;DHT22;10097;50.862;4.696;2023-06-14T15:54:11;36.50;48.60